createdAt,value
2023-07-06T00:00:46.366Z,444.00
2023-07-06T00:01:46.494Z,445.00
2023-07-06T00:02:46.515Z,443.00
2023-07-06T00:03:46.681Z,443.00
2023-07-06T00:04:46.644Z,443.00
2023-07-06T00:05:46.643Z,445.00
2023-07-06T00:06:46.708Z,445.00
2023-07-06T00:07:46.768Z,443.00
2023-07-06T00:08:46.837Z,444.00
2023-07-06T00:09:46.863Z,445.00
2023-07-06T00:10:46.946Z,444.00
2023-07-06T00:11:46.985Z,445.00
2023-07-06T00:12:47.065Z,444.00
2023-07-06T00:13:47.100Z,444.00
2023-07-06T00:14:47.162Z,444.00
2023-07-06T00:15:47.195Z,446.00
2023-07-06T00:16:47.340Z,446.00
2023-07-06T00:17:47.444Z,448.00
2023-07-06T00:18:47.355Z,451.00
2023-07-06T00:19:47.453Z,451.00
2023-07-06T00:20:47.544Z,450.00
2023-07-06T00:21:47.506Z,450.00
2023-07-06T00:22:47.590Z,449.00
2023-07-06T00:23:47.679Z,449.00
2023-07-06T00:24:47.758Z,449.00
2023-07-06T00:25:47.776Z,450.00
2023-07-06T00:26:47.895Z,449.00
2023-07-06T00:27:47.882Z,447.00
2023-07-06T00:28:47.926Z,447.00
2023-07-06T00:29:47.962Z,448.00
2023-07-06T00:30:48.052Z,452.00
2023-07-06T00:31:48.106Z,451.00
2023-07-06T00:32:48.231Z,452.00
2023-07-06T00:33:48.227Z,452.00
2023-07-06T00:34:48.273Z,450.00
2023-07-06T00:35:48.299Z,450.00
2023-07-06T00:36:48.434Z,453.00
2023-07-06T00:37:48.420Z,452.00
2023-07-06T00:38:48.500Z,452.00
2023-07-06T00:39:48.542Z,452.00
2023-07-06T00:40:48.621Z,454.00
2023-07-06T00:41:49.835Z,453.00
2023-07-06T00:42:48.714Z,452.00
2023-07-06T00:43:48.760Z,454.00
2023-07-06T00:44:48.870Z,453.00
2023-07-06T00:45:49.680Z,455.00
2023-07-06T00:46:48.948Z,452.00
2023-07-06T00:47:49.115Z,454.00
2023-07-06T00:48:49.058Z,458.00
2023-07-06T00:49:49.132Z,456.00
2023-07-06T00:50:49.159Z,454.00
2023-07-06T00:51:49.259Z,453.00
2023-07-06T00:52:49.344Z,453.00
2023-07-06T00:53:49.655Z,451.00
2023-07-06T00:54:49.407Z,452.00
2023-07-06T00:55:49.435Z,449.00
2023-07-06T00:56:49.465Z,452.00
2023-07-06T00:57:49.546Z,453.00
2023-07-06T00:58:49.644Z,453.00
2023-07-06T00:59:49.632Z,454.00
2023-07-06T01:00:49.942Z,455.00
2023-07-06T01:01:49.748Z,457.00
2023-07-06T01:02:49.968Z,459.00
2023-07-06T01:03:49.944Z,462.00
2023-07-06T01:04:49.990Z,459.00
2023-07-06T01:05:50.004Z,460.00
2023-07-06T01:06:50.026Z,457.00
2023-07-06T01:07:50.104Z,459.00
2023-07-06T01:08:50.158Z,460.00
2023-07-06T01:09:50.263Z,459.00
2023-07-06T01:10:50.264Z,460.00
2023-07-06T01:11:50.341Z,463.00
2023-07-06T01:12:50.374Z,463.00
2023-07-06T01:13:50.477Z,461.00
2023-07-06T01:14:50.490Z,463.00
2023-07-06T01:15:50.615Z,463.00
2023-07-06T01:16:50.682Z,463.00
2023-07-06T01:17:50.712Z,462.00
2023-07-06T01:18:50.734Z,462.00
2023-07-06T01:19:50.783Z,464.00
2023-07-06T01:20:50.818Z,464.00
2023-07-06T01:21:50.854Z,463.00
2023-07-06T01:22:50.912Z,464.00
2023-07-06T01:23:50.976Z,464.00
2023-07-06T01:24:51.015Z,464.00
2023-07-06T01:25:51.089Z,466.00
2023-07-06T01:26:51.119Z,466.00
2023-07-06T01:27:51.198Z,468.00
2023-07-06T01:28:51.237Z,467.00
2023-07-06T01:29:51.293Z,467.00
2023-07-06T01:30:51.352Z,466.00
2023-07-06T01:31:51.401Z,466.00
2023-07-06T01:32:51.576Z,464.00
2023-07-06T01:33:51.709Z,465.00
2023-07-06T01:34:51.553Z,465.00
2023-07-06T01:35:51.589Z,466.00
2023-07-06T01:36:51.672Z,467.00
2023-07-06T01:37:51.697Z,465.00
2023-07-06T01:38:51.750Z,464.00
2023-07-06T01:39:51.810Z,464.00
2023-07-06T01:40:51.871Z,464.00
2023-07-06T01:41:51.976Z,461.00
2023-07-06T01:42:51.995Z,463.00
2023-07-06T01:43:52.022Z,460.00
2023-07-06T01:44:52.109Z,459.00
2023-07-06T01:45:52.167Z,463.00
2023-07-06T01:46:52.277Z,465.00
2023-07-06T01:47:52.352Z,464.00
2023-07-06T01:48:52.322Z,464.00
2023-07-06T01:49:52.397Z,465.00
2023-07-06T01:50:52.387Z,465.00
2023-07-06T01:51:52.453Z,468.00
2023-07-06T01:52:52.525Z,468.00
2023-07-06T01:53:52.593Z,470.00
2023-07-06T01:54:52.633Z,468.00
2023-07-06T01:55:52.850Z,465.00
2023-07-06T01:56:52.734Z,465.00
2023-07-06T01:58:01.430Z,464.00
2023-07-06T01:58:54.192Z,465.00
2023-07-06T01:59:52.829Z,467.00
2023-07-06T02:00:52.862Z,467.00
2023-07-06T02:01:52.861Z,468.00
2023-07-06T02:02:52.829Z,467.00
2023-07-06T02:03:52.758Z,464.00
2023-07-06T02:04:52.755Z,462.00
2023-07-06T02:05:52.744Z,460.00
2023-07-06T02:06:52.765Z,459.00
2023-07-06T02:07:52.793Z,460.00
2023-07-06T02:08:52.819Z,462.00
2023-07-06T02:09:52.848Z,463.00
2023-07-06T02:10:52.934Z,466.00
2023-07-06T02:11:53.020Z,467.00
2023-07-06T02:12:53.054Z,464.00
2023-07-06T02:13:53.219Z,469.00
2023-07-06T02:14:53.168Z,469.00
2023-07-06T02:15:53.203Z,468.00
2023-07-06T02:16:53.308Z,463.00
2023-07-06T02:17:53.384Z,464.00
2023-07-06T02:18:53.359Z,465.00
2023-07-06T02:19:53.433Z,467.00
2023-07-06T02:20:53.481Z,466.00
2023-07-06T02:21:53.563Z,464.00
2023-07-06T02:22:53.607Z,465.00
2023-07-06T02:23:53.648Z,466.00
2023-07-06T02:24:53.718Z,466.00
2023-07-06T02:25:54.044Z,468.00
2023-07-06T02:26:53.780Z,468.00
2023-07-06T02:27:53.879Z,470.00
2023-07-06T02:28:53.964Z,470.00
2023-07-06T02:29:53.997Z,472.00
2023-07-06T02:30:54.246Z,471.00
2023-07-06T02:31:54.103Z,471.00
2023-07-06T02:32:54.246Z,470.00
2023-07-06T02:33:54.269Z,468.00
2023-07-06T02:34:54.244Z,470.00
2023-07-06T02:35:54.699Z,470.00
2023-07-06T02:36:54.354Z,467.00
2023-07-06T02:37:54.426Z,469.00
2023-07-06T02:38:54.723Z,471.00
2023-07-06T02:39:54.579Z,469.00
2023-07-06T02:40:54.573Z,470.00
2023-07-06T02:41:54.630Z,468.00
2023-07-06T02:42:54.666Z,469.00
2023-07-06T02:43:54.715Z,469.00
2023-07-06T02:44:54.802Z,468.00
2023-07-06T02:45:55.066Z,468.00
2023-07-06T02:46:54.913Z,467.00
2023-07-06T02:47:54.965Z,467.00
2023-07-06T02:48:54.998Z,467.00
2023-07-06T02:49:55.052Z,468.00
2023-07-06T02:50:55.134Z,468.00
2023-07-06T02:51:55.175Z,468.00
2023-07-06T02:52:55.181Z,469.00
2023-07-06T02:53:55.287Z,466.00
2023-07-06T02:54:55.368Z,463.00
2023-07-06T02:55:55.749Z,462.00
2023-07-06T02:56:55.465Z,464.00
2023-07-06T02:57:55.525Z,464.00
2023-07-06T02:58:55.591Z,465.00
2023-07-06T02:59:55.601Z,461.00
2023-07-06T03:00:55.642Z,461.00
2023-07-06T03:01:55.750Z,464.00
2023-07-06T03:02:55.864Z,463.00
2023-07-06T03:03:55.829Z,466.00
2023-07-06T03:04:55.921Z,466.00
2023-07-06T03:05:56.438Z,466.00
2023-07-06T03:06:56.039Z,466.00
2023-07-06T03:07:56.209Z,468.00
2023-07-06T03:08:56.113Z,467.00
2023-07-06T03:09:56.188Z,468.00
2023-07-06T03:10:56.216Z,467.00
2023-07-06T03:11:56.302Z,466.00
2023-07-06T03:12:56.353Z,463.00
2023-07-06T03:13:56.551Z,461.00
2023-07-06T03:14:56.434Z,460.00
2023-07-06T03:15:56.718Z,461.00
2023-07-06T03:16:56.564Z,464.00
2023-07-06T03:17:56.634Z,464.00
2023-07-06T03:18:56.652Z,466.00
2023-07-06T03:19:56.705Z,468.00
2023-07-06T03:20:56.771Z,470.00
2023-07-06T03:21:56.822Z,472.00
2023-07-06T03:22:56.889Z,470.00
2023-07-06T03:23:56.942Z,469.00
2023-07-06T03:24:56.973Z,467.00
2023-07-06T03:25:57.438Z,466.00
2023-07-06T03:26:57.108Z,466.00
2023-07-06T03:27:57.131Z,467.00
2023-07-06T03:28:57.239Z,471.00
2023-07-06T03:29:57.282Z,467.00
2023-07-06T03:30:57.364Z,467.00
2023-07-06T03:31:57.461Z,466.00
2023-07-06T03:32:57.537Z,466.00
2023-07-06T03:33:57.527Z,464.00
2023-07-06T03:34:57.580Z,464.00
2023-07-06T03:35:57.756Z,465.00
2023-07-06T03:36:57.670Z,463.00
2023-07-06T03:37:57.757Z,464.00
2023-07-06T03:38:57.821Z,465.00
2023-07-06T03:39:57.830Z,467.00
2023-07-06T03:40:57.915Z,468.00
2023-07-06T03:41:57.939Z,470.00
2023-07-06T03:42:58.062Z,470.00
2023-07-06T03:43:58.100Z,470.00
2023-07-06T03:44:58.192Z,467.00
2023-07-06T03:45:58.469Z,467.00
2023-07-06T03:46:58.290Z,470.00
2023-07-06T03:47:58.363Z,468.00
2023-07-06T03:48:58.401Z,469.00
2023-07-06T03:49:58.408Z,467.00
2023-07-06T03:50:58.438Z,468.00
2023-07-06T03:51:58.532Z,467.00
2023-07-06T03:52:58.640Z,467.00
2023-07-06T03:53:58.644Z,469.00
2023-07-06T03:54:58.832Z,470.00
2023-07-06T03:55:58.896Z,467.00
2023-07-06T03:56:58.878Z,467.00
2023-07-06T03:58:05.196Z,466.00
2023-07-06T03:58:59.917Z,464.00
2023-07-06T03:59:58.891Z,466.00
2023-07-06T04:00:58.907Z,464.00
2023-07-06T04:01:58.938Z,464.00
2023-07-06T04:02:58.928Z,466.00
2023-07-06T04:03:58.943Z,466.00
2023-07-06T04:04:58.827Z,464.00
2023-07-06T04:05:59.127Z,464.00
2023-07-06T04:06:58.913Z,468.00
2023-07-06T04:07:58.944Z,465.00
2023-07-06T04:08:59.237Z,468.00
2023-07-06T04:09:59.072Z,468.00
2023-07-06T04:10:59.186Z,463.00
2023-07-06T04:11:59.177Z,462.00
2023-07-06T04:12:59.315Z,462.00
2023-07-06T04:13:59.470Z,464.00
2023-07-06T04:14:59.338Z,462.00
2023-07-06T04:15:59.790Z,463.00
2023-07-06T04:16:59.540Z,465.00
2023-07-06T04:17:59.671Z,463.00
2023-07-06T04:18:59.640Z,466.00
2023-07-06T04:19:59.711Z,466.00
2023-07-06T04:20:59.760Z,465.00
2023-07-06T04:21:59.831Z,465.00
2023-07-06T04:22:59.878Z,467.00
2023-07-06T04:24:00.253Z,463.00
2023-07-06T04:24:59.987Z,465.00
2023-07-06T04:26:00.063Z,468.00
2023-07-06T04:27:00.143Z,468.00
2023-07-06T04:28:00.222Z,471.00
2023-07-06T04:29:00.364Z,471.00
2023-07-06T04:30:00.292Z,468.00
2023-07-06T04:31:00.391Z,469.00
2023-07-06T04:32:00.400Z,470.00
2023-07-06T04:33:00.488Z,471.00
2023-07-06T04:34:00.498Z,471.00
2023-07-06T04:35:00.568Z,472.00
2023-07-06T04:36:00.793Z,469.00
2023-07-06T04:37:00.700Z,468.00
2023-07-06T04:38:00.752Z,469.00
2023-07-06T04:39:00.818Z,467.00
2023-07-06T04:40:00.851Z,466.00
2023-07-06T04:41:00.947Z,465.00
2023-07-06T04:42:00.939Z,466.00
2023-07-06T04:43:00.958Z,465.00
2023-07-06T04:44:01.259Z,465.00
2023-07-06T04:45:00.980Z,470.00
2023-07-06T04:46:00.988Z,473.00
2023-07-06T04:47:01.118Z,473.00
2023-07-06T04:48:01.013Z,472.00
2023-07-06T04:49:01.040Z,475.00
2023-07-06T04:50:01.060Z,479.00
2023-07-06T04:51:01.065Z,480.00
2023-07-06T04:52:01.126Z,478.00
2023-07-06T04:53:01.138Z,480.00
2023-07-06T04:54:01.222Z,480.00
2023-07-06T04:55:01.227Z,479.00
2023-07-06T04:56:01.495Z,480.00
2023-07-06T04:57:01.342Z,478.00
2023-07-06T04:58:01.381Z,476.00
2023-07-06T04:59:01.748Z,477.00
2023-07-06T05:00:01.527Z,476.00
2023-07-06T05:01:01.570Z,476.00
2023-07-06T05:02:01.590Z,474.00
2023-07-06T05:03:01.764Z,474.00
2023-07-06T05:04:01.889Z,472.00
2023-07-06T05:05:01.704Z,472.00
2023-07-06T05:06:01.762Z,472.00
2023-07-06T05:07:01.786Z,475.00
2023-07-06T05:08:01.845Z,476.00
2023-07-06T05:09:01.845Z,477.00
2023-07-06T05:10:01.885Z,477.00
2023-07-06T05:11:01.898Z,478.00
2023-07-06T05:12:01.913Z,477.00
2023-07-06T05:13:01.923Z,477.00
2023-07-06T05:14:01.913Z,478.00
2023-07-06T05:15:01.887Z,479.00
2023-07-06T05:16:01.885Z,479.00
2023-07-06T05:17:01.930Z,477.00
2023-07-06T05:18:01.937Z,472.00
2023-07-06T05:19:01.918Z,471.00
2023-07-06T05:20:01.933Z,468.00
2023-07-06T05:21:01.920Z,467.00
2023-07-06T05:22:01.908Z,465.00
2023-07-06T05:23:01.945Z,466.00
2023-07-06T05:24:02.374Z,469.00
2023-07-06T05:25:01.948Z,469.00
2023-07-06T05:26:01.960Z,472.00
2023-07-06T05:27:01.966Z,470.00
2023-07-06T05:28:01.979Z,474.00
2023-07-06T05:29:02.026Z,472.00
2023-07-06T05:30:02.037Z,472.00
2023-07-06T05:31:02.011Z,473.00
2023-07-06T05:32:02.000Z,473.00
2023-07-06T05:33:02.053Z,472.00
2023-07-06T05:34:02.018Z,470.00
2023-07-06T05:35:02.027Z,469.00
2023-07-06T05:36:02.719Z,468.00
2023-07-06T05:37:02.013Z,470.00
2023-07-06T05:38:02.001Z,470.00
2023-07-06T05:39:01.982Z,470.00
2023-07-06T05:40:01.992Z,469.00
2023-07-06T05:41:02.025Z,474.00
2023-07-06T05:42:01.999Z,472.00
2023-07-06T05:43:02.010Z,470.00
2023-07-06T05:44:02.334Z,473.00
2023-07-06T05:45:01.979Z,473.00
2023-07-06T05:46:02.038Z,473.00
2023-07-06T05:47:01.999Z,473.00
2023-07-06T05:48:02.079Z,473.00
2023-07-06T05:49:01.950Z,477.00
2023-07-06T05:50:01.944Z,475.00
2023-07-06T05:51:01.969Z,470.00
2023-07-06T05:52:01.954Z,469.00
2023-07-06T05:53:01.939Z,469.00
2023-07-06T05:54:04.334Z,468.00
2023-07-06T05:55:01.957Z,471.00
2023-07-06T05:56:01.925Z,473.00
2023-07-06T05:57:01.971Z,478.00
2023-07-06T05:58:01.939Z,479.00
2023-07-06T05:59:01.936Z,480.00
2023-07-06T06:00:01.925Z,479.00
2023-07-06T06:01:01.940Z,483.00
2023-07-06T06:02:01.917Z,488.00
2023-07-06T06:03:01.949Z,489.00
2023-07-06T06:04:01.939Z,489.00
2023-07-06T06:05:01.856Z,488.00
2023-07-06T06:06:01.875Z,486.00
2023-07-06T06:07:01.869Z,485.00
2023-07-06T06:08:01.858Z,483.00
2023-07-06T06:09:01.849Z,484.00
2023-07-06T06:10:01.836Z,484.00
2023-07-06T06:11:01.825Z,482.00
2023-07-06T06:12:01.884Z,485.00
2023-07-06T06:13:01.821Z,488.00
2023-07-06T06:14:02.355Z,488.00
2023-07-06T06:15:01.861Z,487.00
2023-07-06T06:16:01.810Z,488.00
2023-07-06T06:17:01.866Z,488.00
2023-07-06T06:18:01.800Z,486.00
2023-07-06T06:19:02.338Z,485.00
2023-07-06T06:20:01.759Z,487.00
2023-07-06T06:21:01.791Z,487.00
2023-07-06T06:22:01.774Z,488.00
2023-07-06T06:23:01.800Z,488.00
2023-07-06T06:24:01.789Z,486.00
2023-07-06T06:25:01.792Z,488.00
2023-07-06T06:26:01.776Z,488.00
2023-07-06T06:27:01.750Z,490.00
2023-07-06T06:28:01.717Z,490.00
2023-07-06T06:29:01.732Z,488.00
2023-07-06T06:30:01.717Z,488.00
2023-07-06T06:31:01.710Z,487.00
2023-07-06T06:32:01.778Z,485.00
2023-07-06T06:33:01.744Z,486.00
2023-07-06T06:34:01.680Z,483.00
2023-07-06T06:35:01.682Z,483.00
2023-07-06T06:36:01.662Z,481.00
2023-07-06T06:37:01.688Z,481.00
2023-07-06T06:38:01.694Z,485.00
2023-07-06T06:39:01.732Z,486.00
2023-07-06T06:40:01.715Z,488.00
2023-07-06T06:41:01.665Z,485.00
2023-07-06T06:42:01.674Z,486.00
2023-07-06T06:43:01.648Z,486.00
2023-07-06T06:44:01.614Z,487.00
2023-07-06T06:45:01.626Z,486.00
2023-07-06T06:46:01.671Z,485.00
2023-07-06T06:47:04.344Z,484.00
2023-07-06T06:48:01.682Z,482.00
2023-07-06T06:49:01.641Z,481.00
2023-07-06T06:50:01.622Z,482.00
2023-07-06T06:51:01.597Z,483.00
2023-07-06T06:52:01.595Z,481.00
2023-07-06T06:53:01.571Z,478.00
2023-07-06T06:54:01.590Z,479.00
2023-07-06T06:55:01.591Z,477.00
2023-07-06T06:56:01.578Z,478.00
2023-07-06T06:57:01.571Z,476.00
2023-07-06T06:58:01.557Z,477.00
2023-07-06T06:59:01.556Z,478.00
2023-07-06T07:00:01.526Z,477.00
2023-07-06T07:01:01.538Z,478.00
2023-07-06T07:02:01.760Z,478.00
2023-07-06T07:03:01.578Z,480.00
2023-07-06T07:04:01.600Z,483.00
2023-07-06T07:05:01.543Z,482.00
2023-07-06T07:06:01.501Z,479.00
2023-07-06T07:07:01.502Z,478.00
2023-07-06T07:08:01.484Z,478.00
2023-07-06T07:09:01.504Z,480.00
2023-07-06T07:10:01.511Z,480.00
2023-07-06T07:11:17.859Z,479.00
2023-07-06T07:12:02.472Z,483.00
2023-07-06T07:13:01.444Z,481.00
2023-07-06T07:14:01.601Z,484.00
2023-07-06T07:15:01.426Z,485.00
2023-07-06T07:16:01.458Z,486.00
2023-07-06T07:17:01.404Z,485.00
2023-07-06T07:18:01.419Z,484.00
2023-07-06T07:19:01.440Z,483.00
2023-07-06T07:20:01.829Z,482.00
2023-07-06T07:21:02.645Z,479.00
2023-07-06T07:22:01.416Z,480.00
2023-07-06T07:23:01.367Z,482.00
2023-07-06T07:24:01.388Z,480.00
2023-07-06T07:25:01.431Z,481.00
2023-07-06T07:26:01.395Z,478.00
2023-07-06T07:27:01.384Z,477.00
2023-07-06T07:28:01.425Z,478.00
2023-07-06T07:29:01.419Z,480.00
2023-07-06T07:30:01.817Z,481.00
2023-07-06T07:31:01.468Z,482.00
2023-07-06T07:32:01.493Z,480.00
2023-07-06T07:33:01.515Z,480.00
2023-07-06T07:34:01.523Z,479.00
2023-07-06T07:35:01.555Z,473.00
2023-07-06T07:36:01.540Z,472.00
2023-07-06T07:37:01.597Z,475.00
2023-07-06T07:38:01.664Z,478.00
2023-07-06T07:39:01.715Z,477.00
2023-07-06T07:40:01.812Z,476.00
2023-07-06T07:41:01.773Z,477.00
2023-07-06T07:42:01.822Z,477.00
2023-07-06T07:43:01.850Z,475.00
2023-07-06T07:44:01.878Z,475.00
2023-07-06T07:45:01.948Z,474.00
2023-07-06T07:46:02.021Z,471.00
2023-07-06T07:47:02.069Z,472.00
2023-07-06T07:48:02.105Z,474.00
2023-07-06T07:49:02.152Z,475.00
2023-07-06T07:50:02.195Z,476.00
2023-07-06T07:51:02.204Z,476.00
2023-07-06T07:52:02.229Z,476.00
2023-07-06T07:53:02.311Z,476.00
2023-07-06T07:54:02.822Z,478.00
2023-07-06T07:55:02.834Z,478.00
2023-07-06T07:56:02.347Z,476.00
2023-07-06T07:57:02.419Z,474.00
2023-07-06T07:58:02.438Z,473.00
2023-07-06T07:59:02.437Z,472.00
2023-07-06T08:00:02.465Z,474.00
2023-07-06T08:01:02.514Z,474.00
2023-07-06T08:02:02.517Z,473.00
2023-07-06T08:03:02.682Z,471.00
2023-07-06T08:04:02.556Z,471.00
2023-07-06T08:05:02.529Z,468.00
2023-07-06T08:06:02.490Z,468.00
2023-07-06T08:07:02.535Z,467.00
2023-07-06T08:08:02.576Z,469.00
2023-07-06T08:09:02.556Z,469.00
2023-07-06T08:10:02.598Z,465.00
2023-07-06T08:11:02.637Z,467.00
2023-07-06T08:12:02.612Z,469.00
2023-07-06T08:13:02.650Z,473.00
2023-07-06T08:14:02.715Z,472.00
2023-07-06T08:15:02.653Z,469.00
2023-07-06T08:16:02.803Z,470.00
2023-07-06T08:17:02.706Z,469.00
2023-07-06T08:18:02.727Z,471.00
2023-07-06T08:19:15.167Z,469.00
2023-07-06T08:20:25.761Z,472.00
2023-07-06T08:21:44.421Z,471.00
2023-07-06T08:23:03.718Z,474.00
2023-07-06T08:24:02.735Z,477.00
2023-07-06T08:25:02.836Z,479.00
2023-07-06T08:26:02.737Z,480.00
2023-07-06T08:27:02.757Z,478.00
2023-07-06T08:28:02.677Z,478.00
2023-07-06T08:29:02.692Z,477.00
2023-07-06T08:30:02.893Z,475.00
2023-07-06T08:31:02.682Z,477.00
2023-07-06T08:32:02.652Z,477.00
2023-07-06T08:33:02.694Z,474.00
2023-07-06T08:34:02.657Z,476.00
2023-07-06T08:35:02.833Z,473.00
2023-07-06T08:36:02.742Z,471.00
2023-07-06T08:37:02.648Z,469.00
2023-07-06T08:38:02.611Z,469.00
2023-07-06T08:39:02.619Z,473.00
2023-07-06T08:40:02.586Z,477.00
2023-07-06T08:41:02.589Z,478.00
2023-07-06T08:42:02.604Z,478.00
2023-07-06T08:43:02.564Z,472.00
2023-07-06T08:44:02.595Z,471.00
2023-07-06T08:45:02.558Z,468.00
2023-07-06T08:46:02.638Z,469.00
2023-07-06T08:47:02.735Z,469.00
2023-07-06T08:48:02.796Z,469.00
2023-07-06T08:49:02.857Z,469.00
2023-07-06T08:50:02.836Z,470.00
2023-07-06T08:51:02.867Z,473.00
2023-07-06T08:52:02.997Z,469.00
2023-07-06T08:53:03.026Z,467.00
2023-07-06T08:54:03.187Z,466.00
2023-07-06T08:55:03.343Z,464.00
2023-07-06T08:56:03.182Z,465.00
2023-07-06T08:57:03.258Z,465.00
2023-07-06T08:58:03.306Z,462.00
2023-07-06T08:59:03.376Z,463.00
2023-07-06T09:00:03.427Z,463.00
2023-07-06T09:01:03.515Z,459.00
2023-07-06T09:02:03.542Z,460.00
2023-07-06T09:03:03.952Z,459.00
2023-07-06T09:04:03.669Z,460.00
2023-07-06T09:05:03.863Z,458.00
2023-07-06T09:06:03.717Z,464.00
2023-07-06T09:07:03.833Z,466.00
2023-07-06T09:08:03.875Z,468.00
2023-07-06T09:09:03.990Z,466.00
2023-07-06T09:10:22.535Z,466.00
2023-07-06T09:11:20.427Z,464.00
2023-07-06T09:12:04.958Z,462.00
2023-07-06T09:13:03.985Z,459.00
2023-07-06T09:14:04.070Z,461.00
2023-07-06T09:15:04.000Z,461.00
2023-07-06T09:16:03.936Z,459.00
2023-07-06T09:17:04.013Z,459.00
2023-07-06T09:18:04.327Z,458.00
2023-07-06T09:19:03.925Z,461.00
2023-07-06T09:20:03.931Z,461.00
2023-07-06T09:21:03.957Z,463.00
2023-07-06T09:22:03.928Z,463.00
2023-07-06T09:23:03.920Z,463.00
2023-07-06T09:24:03.898Z,463.00
2023-07-06T09:25:03.898Z,466.00
2023-07-06T09:26:03.907Z,465.00
2023-07-06T09:27:03.906Z,466.00
2023-07-06T09:28:03.886Z,466.00
2023-07-06T09:29:03.847Z,469.00
2023-07-06T09:30:03.876Z,469.00
2023-07-06T09:31:04.005Z,469.00
2023-07-06T09:32:03.827Z,468.00
2023-07-06T09:33:03.909Z,468.00
2023-07-06T09:34:03.860Z,465.00
2023-07-06T09:35:03.850Z,462.00
2023-07-06T09:36:03.877Z,463.00
2023-07-06T09:37:03.992Z,464.00
2023-07-06T09:38:03.993Z,463.00
2023-07-06T09:39:04.062Z,470.00
2023-07-06T09:40:04.103Z,493.00
2023-07-06T09:41:04.154Z,493.00
2023-07-06T09:42:04.186Z,503.00
2023-07-06T09:43:04.243Z,578.00
2023-07-06T09:44:04.323Z,622.00
2023-07-06T09:45:04.354Z,647.00
2023-07-06T09:46:05.723Z,669.00
2023-07-06T09:47:04.703Z,696.00
2023-07-06T09:48:04.568Z,741.00
2023-07-06T09:49:04.559Z,762.00
2023-07-06T09:50:04.656Z,817.00
2023-07-06T09:51:04.631Z,836.00
2023-07-06T09:52:04.641Z,849.00
2023-07-06T09:53:04.703Z,864.00
2023-07-06T09:54:04.716Z,875.00
2023-07-06T09:55:04.757Z,897.00
2023-07-06T09:56:04.761Z,913.00
2023-07-06T09:57:04.818Z,922.00
2023-07-06T09:58:04.809Z,928.00
2023-07-06T09:59:04.839Z,930.00
2023-07-06T10:00:04.853Z,934.00
2023-07-06T10:01:04.916Z,934.00
2023-07-06T10:02:04.860Z,933.00
2023-07-06T10:03:04.963Z,935.00
2023-07-06T10:04:04.862Z,942.00
2023-07-06T10:05:04.876Z,934.00
2023-07-06T10:06:04.850Z,932.00
2023-07-06T10:07:04.845Z,932.00
2023-07-06T10:08:04.851Z,928.00
2023-07-06T10:09:04.872Z,899.00
2023-07-06T10:10:04.877Z,916.00
2023-07-06T10:11:04.864Z,920.00
2023-07-06T10:12:04.831Z,925.00
2023-07-06T10:13:04.836Z,1036.00
2023-07-06T10:14:04.875Z,1029.00
2023-07-06T10:15:04.868Z,1017.00
2023-07-06T10:16:04.889Z,1037.00
2023-07-06T10:17:04.938Z,1053.00
2023-07-06T10:18:04.983Z,1071.00
2023-07-06T10:19:04.990Z,1093.00
2023-07-06T10:20:05.349Z,1123.00
2023-07-06T10:21:05.108Z,1140.00
2023-07-06T10:22:05.186Z,1153.00
2023-07-06T10:23:05.291Z,1153.00
2023-07-06T10:24:05.264Z,1153.00
2023-07-06T10:25:05.355Z,1177.00
2023-07-06T10:26:05.629Z,1189.00
2023-07-06T10:27:05.424Z,1238.00
2023-07-06T10:28:05.453Z,1235.00
2023-07-06T10:29:05.510Z,1149.00
2023-07-06T10:30:05.556Z,1148.00
2023-07-06T10:31:05.601Z,889.00
2023-07-06T10:32:05.847Z,886.00
2023-07-06T10:33:05.770Z,896.00
2023-07-06T10:34:05.757Z,897.00
2023-07-06T10:35:05.830Z,884.00
2023-07-06T10:36:05.864Z,857.00
2023-07-06T10:37:05.947Z,841.00
2023-07-06T10:38:06.023Z,830.00
2023-07-06T10:39:06.068Z,814.00
2023-07-06T10:40:06.423Z,793.00
2023-07-06T10:41:06.217Z,782.00
2023-07-06T10:42:13.370Z,759.00
2023-07-06T10:43:06.238Z,743.00
2023-07-06T10:44:06.247Z,730.00
2023-07-06T10:45:06.263Z,721.00
2023-07-06T10:46:06.234Z,710.00
2023-07-06T10:47:06.207Z,701.00
2023-07-06T10:48:06.275Z,694.00
2023-07-06T10:49:06.361Z,687.00
2023-07-06T10:50:06.194Z,676.00
2023-07-06T10:51:06.155Z,660.00
2023-07-06T10:52:06.186Z,639.00
2023-07-06T10:53:06.184Z,629.00
2023-07-06T10:54:06.195Z,623.00
2023-07-06T10:55:06.441Z,614.00
2023-07-06T10:56:06.153Z,608.00
2023-07-06T10:57:06.146Z,603.00
2023-07-06T10:58:06.113Z,598.00
2023-07-06T10:59:06.104Z,594.00
2023-07-06T11:00:06.406Z,592.00
2023-07-06T11:01:06.128Z,584.00
2023-07-06T11:02:06.124Z,578.00
2023-07-06T11:03:06.133Z,576.00
2023-07-06T11:04:06.248Z,571.00
2023-07-06T11:05:06.085Z,568.00
2023-07-06T11:06:06.076Z,561.00
2023-07-06T11:07:06.059Z,556.00
2023-07-06T11:08:06.073Z,553.00
2023-07-06T11:09:06.052Z,547.00
2023-07-06T11:10:06.048Z,544.00
2023-07-06T11:11:06.029Z,538.00
2023-07-06T11:12:06.034Z,534.00
2023-07-06T11:13:06.075Z,532.00
2023-07-06T11:14:06.066Z,526.00
2023-07-06T11:15:06.441Z,523.00
2023-07-06T11:16:06.841Z,522.00
2023-07-06T11:17:06.025Z,519.00
2023-07-06T11:18:06.045Z,516.00
2023-07-06T11:19:06.015Z,514.00
2023-07-06T11:20:06.403Z,512.00
2023-07-06T11:21:06.028Z,507.00
2023-07-06T11:22:05.976Z,505.00
2023-07-06T11:23:06.017Z,502.00
2023-07-06T11:24:05.984Z,503.00
2023-07-06T11:25:06.482Z,498.00
2023-07-06T11:26:05.933Z,498.00
2023-07-06T11:27:05.948Z,495.00
2023-07-06T11:28:05.982Z,496.00
2023-07-06T11:29:05.967Z,493.00
2023-07-06T11:30:06.439Z,491.00
2023-07-06T11:31:05.989Z,489.00
2023-07-06T11:32:05.902Z,488.00
2023-07-06T11:33:05.969Z,488.00
2023-07-06T11:34:05.906Z,487.00
2023-07-06T11:35:05.934Z,485.00
2023-07-06T11:36:05.887Z,486.00
2023-07-06T11:37:05.936Z,489.00
2023-07-06T11:38:05.864Z,489.00
2023-07-06T11:39:05.956Z,490.00
2023-07-06T11:40:05.936Z,485.00
2023-07-06T11:41:05.882Z,486.00
2023-07-06T11:42:05.865Z,485.00
2023-07-06T11:43:05.846Z,483.00
2023-07-06T11:44:05.887Z,483.00
2023-07-06T11:45:05.915Z,483.00
2023-07-06T11:46:05.826Z,483.00
2023-07-06T11:47:05.857Z,484.00
2023-07-06T11:48:05.869Z,489.00
2023-07-06T11:49:05.828Z,490.00
2023-07-06T11:50:05.859Z,488.00
2023-07-06T11:51:05.833Z,485.00
2023-07-06T11:52:05.774Z,482.00
2023-07-06T11:53:05.842Z,480.00
2023-07-06T11:54:05.792Z,480.00
2023-07-06T11:55:05.772Z,478.00
2023-07-06T11:56:05.775Z,477.00
2023-07-06T11:57:05.765Z,475.00
2023-07-06T11:58:05.759Z,475.00
2023-07-06T11:59:05.850Z,476.00
2023-07-06T12:00:05.772Z,475.00
2023-07-06T12:01:05.841Z,477.00
2023-07-06T12:02:05.770Z,475.00
2023-07-06T12:03:05.888Z,477.00
2023-07-06T12:04:05.892Z,476.00
2023-07-06T12:05:05.801Z,475.00
2023-07-06T12:06:05.822Z,476.00
2023-07-06T12:07:05.850Z,477.00
2023-07-06T12:08:05.828Z,476.00
2023-07-06T12:09:05.848Z,478.00
2023-07-06T12:10:05.860Z,477.00
2023-07-06T12:11:05.884Z,475.00
2023-07-06T12:12:05.849Z,474.00
2023-07-06T12:13:05.891Z,472.00
2023-07-06T12:14:05.956Z,470.00
2023-07-06T12:15:05.867Z,472.00
2023-07-06T12:16:06.007Z,471.00
2023-07-06T12:17:05.889Z,471.00
2023-07-06T12:18:06.025Z,469.00
2023-07-06T12:19:05.913Z,471.00
2023-07-06T12:20:05.926Z,536.00
2023-07-06T12:21:05.936Z,548.00
2023-07-06T12:22:05.947Z,565.00
2023-07-06T12:23:05.964Z,627.00
2023-07-06T12:24:05.939Z,657.00
2023-07-06T12:25:05.972Z,682.00
2023-07-06T12:26:05.989Z,688.00
2023-07-06T12:27:06.002Z,687.00
2023-07-06T12:28:06.016Z,688.00
2023-07-06T12:29:06.082Z,700.00